sensor_id;sensor_type;location;lat;lon;timestamp;temperature;humidity
37518;DHT22;23366;52.498;13.446;2023-05-16T00:00:23;15.10;99.90
37518;DHT22;23366;52.498;13.446;2023-05-16T00:02:49;15.00;99.90
37518;DHT22;23366;52.498;13.446;2023-05-16T00:05:15;15.10;99.90
37518;DHT22;23366;52.498;13.446;2023-05-16T00:07:43;15.10;99.90
37518;DHT22;23366;52.498;13.446;2023-05-16T00:10:09;15.00;99.90
37518;DHT22;23366;52.498;13.446;2023-05-16T00:12:35;15.00;99.90
37518;DHT22;23366;52.498;13.446;2023-05-16T00:15:02;15.00;99.90
37518;DHT22;23366;52.498;13.446;2023-05-16T00:17:29;15.00;99.90
37518;DHT22;23366;52.498;13.446;2023-05-16T00:19:55;15.00;99.90
37518;DHT22;23366;52.498;13.446;2023-05-16T00:22:25;15.10;99.90
37518;DHT22;23366;52.498;13.446;2023-05-16T00:24:51;15.00;99.90
37518;DHT22;23366;52.498;13.446;2023-05-16T00:27:17;15.10;99.90
37518;DHT22;23366;52.498;13.446;2023-05-16T00:29:42;15.00;99.90
37518;DHT22;23366;52.498;13.446;2023-05-16T00:32:08;15.00;99.90
37518;DHT22;23366;52.498;13.446;2023-05-16T00:34:34;15.00;99.90
37518;DHT22;23366;52.498;13.446;2023-05-16T00:37:00;15.00;99.90
37518;DHT22;23366;52.498;13.446;2023-05-16T00:39:26;15.00;99.90
37518;DHT22;23366;52.498;13.446;2023-05-16T00:41:51;15.00;99.90
37518;DHT22;23366;52.498;13.446;2023-05-16T00:44:17;15.00;99.90
37518;DHT22;23366;52.498;13.446;2023-05-16T00:46:43;14.90;99.90
37518;DHT22;23366;52.498;13.446;2023-05-16T00:49:10;14.90;99.90
37518;DHT22;23366;52.498;13.446;2023-05-16T00:51:37;14.80;99.90
37518;DHT22;23366;52.498;13.446;2023-05-16T00:54:04;14.90;99.90
37518;DHT22;23366;52.498;13.446;2023-05-16T00:56:30;14.80;99.90
37518;DHT22;23366;52.498;13.446;2023-05-16T00:58:55;14.80;99.90
37518;DHT22;23366;52.498;13.446;2023-05-16T01:01:22;14.80;99.90
37518;DHT22;23366;52.498;13.446;2023-05-16T01:03:49;14.80;99.90
37518;DHT22;23366;52.498;13.446;2023-05-16T01:06:14;14.70;99.90
37518;DHT22;23366;52.498;13.446;2023-05-16T01:08:40;14.70;99.90
37518;DHT22;23366;52.498;13.446;2023-05-16T01:11:26;14.70;99.90
37518;DHT22;23366;52.498;13.446;2023-05-16T01:14:08;14.60;99.90
37518;DHT22;23366;52.498;13.446;2023-05-16T01:16:49;14.60;99.90
37518;DHT22;23366;52.498;13.446;2023-05-16T01:27:39;14.40;99.90
37518;DHT22;23366;52.498;13.446;2023-05-16T01:30:18;14.40;99.90
37518;DHT22;23366;52.498;13.446;2023-05-16T01:32:44;14.30;99.90
37518;DHT22;23366;52.498;13.446;2023-05-16T01:35:12;14.30;99.90
37518;DHT22;23366;52.498;13.446;2023-05-16T01:37:56;14.20;99.90
37518;DHT22;23366;52.498;13.446;2023-05-16T01:40:29;14.20;99.90
37518;DHT22;23366;52.498;13.446;2023-05-16T01:42:59;14.20;99.90
37518;DHT22;23366;52.498;13.446;2023-05-16T01:45:28;14.10;99.90
37518;DHT22;23366;52.498;13.446;2023-05-16T01:48:12;14.10;99.90
37518;DHT22;23366;52.498;13.446;2023-05-16T01:50:46;14.00;99.90
37518;DHT22;23366;52.498;13.446;2023-05-16T01:53:15;14.00;99.90
37518;DHT22;23366;52.498;13.446;2023-05-16T01:55:46;14.00;99.90
37518;DHT22;23366;52.498;13.446;2023-05-16T01:58:12;14.00;99.90
37518;DHT22;23366;52.498;13.446;2023-05-16T02:00:39;13.90;99.90
37518;DHT22;23366;52.498;13.446;2023-05-16T02:03:05;13.90;99.90
37518;DHT22;23366;52.498;13.446;2023-05-16T02:05:31;13.90;99.90
37518;DHT22;23366;52.498;13.446;2023-05-16T02:07:58;13.90;99.90
37518;DHT22;23366;52.498;13.446;2023-05-16T02:10:23;13.80;99.90
37518;DHT22;23366;52.498;13.446;2023-05-16T02:12:49;13.80;99.90
37518;DHT22;23366;52.498;13.446;2023-05-16T02:15:15;13.80;99.90
37518;DHT22;23366;52.498;13.446;2023-05-16T02:17:40;13.80;99.90
37518;DHT22;23366;52.498;13.446;2023-05-16T02:20:06;13.80;99.90
37518;DHT22;23366;52.498;13.446;2023-05-16T02:22:34;13.80;99.90
37518;DHT22;23366;52.498;13.446;2023-05-16T02:25:02;13.80;99.90
37518;DHT22;23366;52.498;13.446;2023-05-16T02:27:30;13.70;99.90
37518;DHT22;23366;52.498;13.446;2023-05-16T02:29:56;13.70;99.90
37518;DHT22;23366;52.498;13.446;2023-05-16T02:32:22;13.70;99.90
37518;DHT22;23366;52.498;13.446;2023-05-16T02:34:47;13.70;99.90
37518;DHT22;23366;52.498;13.446;2023-05-16T02:37:13;13.70;99.90
37518;DHT22;23366;52.498;13.446;2023-05-16T02:39:39;13.60;99.90
37518;DHT22;23366;52.498;13.446;2023-05-16T02:42:05;13.60;99.90
37518;DHT22;23366;52.498;13.446;2023-05-16T02:44:31;13.60;99.90
37518;DHT22;23366;52.498;13.446;2023-05-16T02:46:57;13.60;99.90
37518;DHT22;23366;52.498;13.446;2023-05-16T02:49:22;13.60;99.90
37518;DHT22;23366;52.498;13.446;2023-05-16T02:51:47;13.50;99.90
37518;DHT22;23366;52.498;13.446;2023-05-16T02:54:13;13.50;99.90
37518;DHT22;23366;52.498;13.446;2023-05-16T02:56:39;13.50;99.90
37518;DHT22;23366;52.498;13.446;2023-05-16T02:59:04;13.50;99.90
37518;DHT22;23366;52.498;13.446;2023-05-16T03:01:30;13.50;99.90
37518;DHT22;23366;52.498;13.446;2023-05-16T03:03:55;13.50;99.90
37518;DHT22;23366;52.498;13.446;2023-05-16T03:06:21;13.40;99.90
37518;DHT22;23366;52.498;13.446;2023-05-16T03:08:47;13.50;99.90
37518;DHT22;23366;52.498;13.446;2023-05-16T03:11:13;13.40;99.90
37518;DHT22;23366;52.498;13.446;2023-05-16T03:13:39;13.50;99.90
37518;DHT22;23366;52.498;13.446;2023-05-16T03:16:05;13.50;99.90
37518;DHT22;23366;52.498;13.446;2023-05-16T03:18:30;13.50;99.90
37518;DHT22;23366;52.498;13.446;2023-05-16T03:20:56;13.50;99.90
37518;DHT22;23366;52.498;13.446;2023-05-16T03:23:22;13.50;99.90
37518;DHT22;23366;52.498;13.446;2023-05-16T03:25:48;13.40;99.90
37518;DHT22;23366;52.498;13.446;2023-05-16T03:28:16;13.50;99.90
37518;DHT22;23366;52.498;13.446;2023-05-16T03:30:42;13.40;99.90
37518;DHT22;23366;52.498;13.446;2023-05-16T03:33:07;13.40;99.90
37518;DHT22;23366;52.498;13.446;2023-05-16T03:35:34;13.40;99.90
37518;DHT22;23366;52.498;13.446;2023-05-16T03:38:00;13.40;99.90
37518;DHT22;23366;52.498;13.446;2023-05-16T03:40:26;13.40;99.90
37518;DHT22;23366;52.498;13.446;2023-05-16T03:42:52;13.30;99.90
37518;DHT22;23366;52.498;13.446;2023-05-16T03:45:17;13.30;99.90
37518;DHT22;23366;52.498;13.446;2023-05-16T03:47:43;13.30;99.90
37518;DHT22;23366;52.498;13.446;2023-05-16T03:50:08;13.30;99.90
37518;DHT22;23366;52.498;13.446;2023-05-16T03:52:34;13.30;99.90
37518;DHT22;23366;52.498;13.446;2023-05-16T03:55:00;13.30;99.90
37518;DHT22;23366;52.498;13.446;2023-05-16T03:57:30;13.10;99.90
37518;DHT22;23366;52.498;13.446;2023-05-16T03:59:56;13.20;99.90
37518;DHT22;23366;52.498;13.446;2023-05-16T04:02:22;13.10;99.90
37518;DHT22;23366;52.498;13.446;2023-05-16T04:04:47;13.20;99.90
37518;DHT22;23366;52.498;13.446;2023-05-16T04:07:13;13.20;99.90
37518;DHT22;23366;52.498;13.446;2023-05-16T04:09:38;13.20;99.90
37518;DHT22;23366;52.498;13.446;2023-05-16T04:12:04;13.20;99.90
37518;DHT22;23366;52.498;13.446;2023-05-16T04:14:30;13.10;99.90
37518;DHT22;23366;52.498;13.446;2023-05-16T04:16:56;13.20;99.90
37518;DHT22;23366;52.498;13.446;2023-05-16T04:19:22;13.10;99.90
37518;DHT22;23366;52.498;13.446;2023-05-16T04:21:47;13.10;99.90
37518;DHT22;23366;52.498;13.446;2023-05-16T04:24:12;13.10;99.90
37518;DHT22;23366;52.498;13.446;2023-05-16T04:26:38;13.10;99.90
37518;DHT22;23366;52.498;13.446;2023-05-16T04:29:03;13.10;99.90
37518;DHT22;23366;52.498;13.446;2023-05-16T04:31:29;13.10;99.90
37518;DHT22;23366;52.498;13.446;2023-05-16T04:33:55;13.00;99.90
37518;DHT22;23366;52.498;13.446;2023-05-16T04:36:22;13.00;99.90
37518;DHT22;23366;52.498;13.446;2023-05-16T04:38:48;13.00;99.90
37518;DHT22;23366;52.498;13.446;2023-05-16T04:41:14;13.00;99.90
37518;DHT22;23366;52.498;13.446;2023-05-16T04:43:39;13.00;99.90
37518;DHT22;23366;52.498;13.446;2023-05-16T04:46:06;13.00;99.90
37518;DHT22;23366;52.498;13.446;2023-05-16T04:48:32;13.00;99.90
37518;DHT22;23366;52.498;13.446;2023-05-16T04:50:58;12.90;99.90
37518;DHT22;23366;52.498;13.446;2023-05-16T04:53:23;12.90;99.90
37518;DHT22;23366;52.498;13.446;2023-05-16T04:55:49;12.90;99.90
37518;DHT22;23366;52.498;13.446;2023-05-16T04:58:14;12.90;99.90
37518;DHT22;23366;52.498;13.446;2023-05-16T05:00:40;13.00;99.90
37518;DHT22;23366;52.498;13.446;2023-05-16T05:03:06;13.00;99.90
37518;DHT22;23366;52.498;13.446;2023-05-16T05:05:31;13.00;99.90
37518;DHT22;23366;52.498;13.446;2023-05-16T05:07:57;13.00;99.90
37518;DHT22;23366;52.498;13.446;2023-05-16T05:10:22;13.00;99.90
37518;DHT22;23366;52.498;13.446;2023-05-16T05:12:48;13.00;99.90
37518;DHT22;23366;52.498;13.446;2023-05-16T05:15:13;13.00;99.90
37518;DHT22;23366;52.498;13.446;2023-05-16T05:17:39;13.00;99.90
37518;DHT22;23366;52.498;13.446;2023-05-16T05:20:05;13.00;99.90
37518;DHT22;23366;52.498;13.446;2023-05-16T05:22:31;13.00;99.90
37518;DHT22;23366;52.498;13.446;2023-05-16T05:24:57;13.00;99.90
37518;DHT22;23366;52.498;13.446;2023-05-16T05:27:22;13.00;99.90
37518;DHT22;23366;52.498;13.446;2023-05-16T05:29:47;13.00;99.90
37518;DHT22;23366;52.498;13.446;2023-05-16T05:32:13;13.00;99.90
37518;DHT22;23366;52.498;13.446;2023-05-16T05:34:39;13.00;99.90
37518;DHT22;23366;52.498;13.446;2023-05-16T05:37:04;13.00;99.90
37518;DHT22;23366;52.498;13.446;2023-05-16T05:39:30;13.00;99.90
37518;DHT22;23366;52.498;13.446;2023-05-16T05:41:55;13.00;99.90
37518;DHT22;23366;52.498;13.446;2023-05-16T05:44:21;13.10;99.90
37518;DHT22;23366;52.498;13.446;2023-05-16T05:46:46;13.00;99.90
37518;DHT22;23366;52.498;13.446;2023-05-16T05:49:12;13.10;99.90
37518;DHT22;23366;52.498;13.446;2023-05-16T05:51:37;13.10;99.90
37518;DHT22;23366;52.498;13.446;2023-05-16T05:54:03;13.10;99.90
37518;DHT22;23366;52.498;13.446;2023-05-16T05:56:28;13.10;99.90
37518;DHT22;23366;52.498;13.446;2023-05-16T05:58:54;13.20;99.90
37518;DHT22;23366;52.498;13.446;2023-05-16T06:01:19;13.20;99.90
37518;DHT22;23366;52.498;13.446;2023-05-16T06:03:46;13.20;99.90
37518;DHT22;23366;52.498;13.446;2023-05-16T06:06:12;13.20;99.90
37518;DHT22;23366;52.498;13.446;2023-05-16T06:08:39;13.20;99.90
37518;DHT22;23366;52.498;13.446;2023-05-16T06:11:04;13.20;99.90
37518;DHT22;23366;52.498;13.446;2023-05-16T06:13:30;13.30;99.90
37518;DHT22;23366;52.498;13.446;2023-05-16T06:15:55;13.40;99.90
37518;DHT22;23366;52.498;13.446;2023-05-16T06:18:21;13.40;99.90
37518;DHT22;23366;52.498;13.446;2023-05-16T06:20:47;13.50;99.90
37518;DHT22;23366;52.498;13.446;2023-05-16T06:23:12;13.50;99.90
37518;DHT22;23366;52.498;13.446;2023-05-16T06:25:38;13.50;99.90
37518;DHT22;23366;52.498;13.446;2023-05-16T06:28:03;13.60;99.90
37518;DHT22;23366;52.498;13.446;2023-05-16T06:30:29;13.50;99.90
37518;DHT22;23366;52.498;13.446;2023-05-16T06:32:54;13.60;99.90
37518;DHT22;23366;52.498;13.446;2023-05-16T06:35:20;13.70;99.90
37518;DHT22;23366;52.498;13.446;2023-05-16T06:37:45;13.60;99.90
37518;DHT22;23366;52.498;13.446;2023-05-16T06:40:11;13.70;99.90
37518;DHT22;23366;52.498;13.446;2023-05-16T06:42:37;13.70;99.90
37518;DHT22;23366;52.498;13.446;2023-05-16T06:45:02;13.80;99.90
37518;DHT22;23366;52.498;13.446;2023-05-16T06:47:28;13.80;99.90
37518;DHT22;23366;52.498;13.446;2023-05-16T06:49:53;13.90;99.90
37518;DHT22;23366;52.498;13.446;2023-05-16T06:52:19;13.90;99.90
37518;DHT22;23366;52.498;13.446;2023-05-16T06:54:44;13.90;99.90
37518;DHT22;23366;52.498;13.446;2023-05-16T06:57:10;14.00;99.90
37518;DHT22;23366;52.498;13.446;2023-05-16T06:59:35;14.00;99.90
37518;DHT22;23366;52.498;13.446;2023-05-16T07:02:01;14.10;99.90
37518;DHT22;23366;52.498;13.446;2023-05-16T07:04:27;14.10;99.90
37518;DHT22;23366;52.498;13.446;2023-05-16T07:06:52;14.00;99.90
37518;DHT22;23366;52.498;13.446;2023-05-16T07:09:19;14.00;99.90
37518;DHT22;23366;52.498;13.446;2023-05-16T07:11:45;14.00;99.90
37518;DHT22;23366;52.498;13.446;2023-05-16T07:14:10;14.00;99.90
37518;DHT22;23366;52.498;13.446;2023-05-16T07:16:36;14.00;99.90
37518;DHT22;23366;52.498;13.446;2023-05-16T07:19:01;14.10;99.90
37518;DHT22;23366;52.498;13.446;2023-05-16T07:21:27;14.20;99.90
37518;DHT22;23366;52.498;13.446;2023-05-16T07:23:53;14.20;99.90
37518;DHT22;23366;52.498;13.446;2023-05-16T07:26:18;14.20;99.90
37518;DHT22;23366;52.498;13.446;2023-05-16T07:28:48;14.40;99.90
37518;DHT22;23366;52.498;13.446;2023-05-16T07:31:13;14.40;99.90
37518;DHT22;23366;52.498;13.446;2023-05-16T07:33:39;14.40;99.90
37518;DHT22;23366;52.498;13.446;2023-05-16T07:36:05;14.50;99.90
37518;DHT22;23366;52.498;13.446;2023-05-16T07:38:30;14.70;99.90
37518;DHT22;23366;52.498;13.446;2023-05-16T07:40:56;14.80;99.90
37518;DHT22;23366;52.498;13.446;2023-05-16T07:43:21;14.90;99.90
37518;DHT22;23366;52.498;13.446;2023-05-16T07:45:47;15.00;99.90
37518;DHT22;23366;52.498;13.446;2023-05-16T07:48:12;15.10;99.90
37518;DHT22;23366;52.498;13.446;2023-05-16T07:50:37;15.30;99.90
37518;DHT22;23366;52.498;13.446;2023-05-16T07:53:03;15.50;99.90
37518;DHT22;23366;52.498;13.446;2023-05-16T07:55:28;15.60;99.90
37518;DHT22;23366;52.498;13.446;2023-05-16T07:57:54;15.70;99.90
37518;DHT22;23366;52.498;13.446;2023-05-16T08:00:20;15.70;99.90
37518;DHT22;23366;52.498;13.446;2023-05-16T08:02:45;15.60;99.90
37518;DHT22;23366;52.498;13.446;2023-05-16T08:05:11;15.50;99.90
37518;DHT22;23366;52.498;13.446;2023-05-16T08:07:36;15.40;99.90
37518;DHT22;23366;52.498;13.446;2023-05-16T08:10:02;15.30;99.90
37518;DHT22;23366;52.498;13.446;2023-05-16T08:12:28;15.30;99.90
37518;DHT22;23366;52.498;13.446;2023-05-16T08:14:55;15.20;99.90
37518;DHT22;23366;52.498;13.446;2023-05-16T08:17:21;15.00;99.90
37518;DHT22;23366;52.498;13.446;2023-05-16T08:19:46;14.90;99.90
37518;DHT22;23366;52.498;13.446;2023-05-16T08:22:12;14.90;99.90
37518;DHT22;23366;52.498;13.446;2023-05-16T08:24:37;14.80;99.90
37518;DHT22;23366;52.498;13.446;2023-05-16T08:27:03;14.80;99.90
37518;DHT22;23366;52.498;13.446;2023-05-16T08:29:28;14.80;99.90
37518;DHT22;23366;52.498;13.446;2023-05-16T08:31:55;14.60;99.90
37518;DHT22;23366;52.498;13.446;2023-05-16T08:34:21;14.60;99.90
37518;DHT22;23366;52.498;13.446;2023-05-16T08:36:48;14.40;99.90
37518;DHT22;23366;52.498;13.446;2023-05-16T08:39:13;14.40;99.90
37518;DHT22;23366;52.498;13.446;2023-05-16T08:41:39;14.40;99.90
37518;DHT22;23366;52.498;13.446;2023-05-16T08:44:05;14.40;99.90
37518;DHT22;23366;52.498;13.446;2023-05-16T08:46:32;14.40;99.90
37518;DHT22;23366;52.498;13.446;2023-05-16T08:48:59;14.40;99.90
37518;DHT22;23366;52.498;13.446;2023-05-16T08:51:27;14.40;99.90
37518;DHT22;23366;52.498;13.446;2023-05-16T08:54:02;14.40;99.90
37518;DHT22;23366;52.498;13.446;2023-05-16T08:56:28;14.60;99.90
37518;DHT22;23366;52.498;13.446;2023-05-16T08:58:56;14.50;99.90
37518;DHT22;23366;52.498;13.446;2023-05-16T09:01:22;14.60;99.90
37518;DHT22;23366;52.498;13.446;2023-05-16T09:03:49;14.60;99.90
37518;DHT22;23366;52.498;13.446;2023-05-16T09:06:15;14.70;99.90
37518;DHT22;23366;52.498;13.446;2023-05-16T09:08:41;14.70;99.90
37518;DHT22;23366;52.498;13.446;2023-05-16T09:11:07;14.80;99.90
37518;DHT22;23366;52.498;13.446;2023-05-16T09:13:33;14.90;99.90
37518;DHT22;23366;52.498;13.446;2023-05-16T09:16:12;15.10;99.90
37518;DHT22;23366;52.498;13.446;2023-05-16T09:18:39;15.30;99.90
37518;DHT22;23366;52.498;13.446;2023-05-16T09:21:05;15.50;99.90
37518;DHT22;23366;52.498;13.446;2023-05-16T09:23:32;15.50;99.90
37518;DHT22;23366;52.498;13.446;2023-05-16T09:25:58;15.50;99.90
37518;DHT22;23366;52.498;13.446;2023-05-16T09:28:27;15.40;99.90
37518;DHT22;23366;52.498;13.446;2023-05-16T09:30:54;15.50;99.90
37518;DHT22;23366;52.498;13.446;2023-05-16T09:33:23;15.40;99.90
37518;DHT22;23366;52.498;13.446;2023-05-16T09:35:56;15.50;99.90
37518;DHT22;23366;52.498;13.446;2023-05-16T09:38:23;15.50;99.90
37518;DHT22;23366;52.498;13.446;2023-05-16T09:40:49;15.40;99.90
37518;DHT22;23366;52.498;13.446;2023-05-16T09:43:16;15.30;99.90
37518;DHT22;23366;52.498;13.446;2023-05-16T09:45:45;15.20;99.90
37518;DHT22;23366;52.498;13.446;2023-05-16T09:48:12;15.10;99.90
37518;DHT22;23366;52.498;13.446;2023-05-16T09:50:38;15.10;99.90
37518;DHT22;23366;52.498;13.446;2023-05-16T09:53:04;15.10;99.90
37518;DHT22;23366;52.498;13.446;2023-05-16T09:55:30;15.20;99.90
37518;DHT22;23366;52.498;13.446;2023-05-16T09:57:56;15.30;99.90
37518;DHT22;23366;52.498;13.446;2023-05-16T10:00:22;15.40;99.90
37518;DHT22;23366;52.498;13.446;2023-05-16T10:02:54;15.50;99.90
37518;DHT22;23366;52.498;13.446;2023-05-16T10:05:21;15.40;99.90
37518;DHT22;23366;52.498;13.446;2023-05-16T10:07:47;15.40;99.90
37518;DHT22;23366;52.498;13.446;2023-05-16T10:10:13;15.40;99.90
37518;DHT22;23366;52.498;13.446;2023-05-16T10:12:40;15.40;99.90
37518;DHT22;23366;52.498;13.446;2023-05-16T10:15:06;15.40;99.90
37518;DHT22;23366;52.498;13.446;2023-05-16T10:17:34;15.30;99.90
37518;DHT22;23366;52.498;13.446;2023-05-16T10:20:03;15.30;99.90
37518;DHT22;23366;52.498;13.446;2023-05-16T10:22:33;15.20;99.90
37518;DHT22;23366;52.498;13.446;2023-05-16T10:25:07;15.10;99.90
37518;DHT22;23366;52.498;13.446;2023-05-16T10:27:34;15.20;99.90
37518;DHT22;23366;52.498;13.446;2023-05-16T10:30:01;15.20;99.90
37518;DHT22;23366;52.498;13.446;2023-05-16T10:32:26;15.30;99.90
37518;DHT22;23366;52.498;13.446;2023-05-16T10:34:53;15.40;99.90
37518;DHT22;23366;52.498;13.446;2023-05-16T10:37:20;15.40;99.90
37518;DHT22;23366;52.498;13.446;2023-05-16T10:39:47;15.40;99.90
37518;DHT22;23366;52.498;13.446;2023-05-16T10:42:13;15.50;99.90
37518;DHT22;23366;52.498;13.446;2023-05-16T10:44:42;15.80;99.90
37518;DHT22;23366;52.498;13.446;2023-05-16T10:47:08;16.20;99.90
37518;DHT22;23366;52.498;13.446;2023-05-16T10:49:33;16.50;99.90
37518;DHT22;23366;52.498;13.446;2023-05-16T10:52:09;16.70;99.20
37518;DHT22;23366;52.498;13.446;2023-05-16T10:54:40;16.60;99.30
37518;DHT22;23366;52.498;13.446;2023-05-16T10:57:10;16.40;99.40
37518;DHT22;23366;52.498;13.446;2023-05-16T10:59:47;16.20;99.80
37518;DHT22;23366;52.498;13.446;2023-05-16T11:02:24;15.90;99.90
37518;DHT22;23366;52.498;13.446;2023-05-16T11:04:51;15.60;99.90
37518;DHT22;23366;52.498;13.446;2023-05-16T11:07:18;15.30;99.90
37518;DHT22;23366;52.498;13.446;2023-05-16T11:09:45;15.10;99.90
37518;DHT22;23366;52.498;13.446;2023-05-16T11:12:19;15.00;99.90
37518;DHT22;23366;52.498;13.446;2023-05-16T11:14:50;14.80;99.90
37518;DHT22;23366;52.498;13.446;2023-05-16T11:17:22;14.90;99.90
37518;DHT22;23366;52.498;13.446;2023-05-16T11:19:50;15.00;99.90
37518;DHT22;23366;52.498;13.446;2023-05-16T11:27:30;15.80;99.20
37518;DHT22;23366;52.498;13.446;2023-05-16T11:30:13;16.10;98.50
37518;DHT22;23366;52.498;13.446;2023-05-16T11:32:42;16.30;97.70
37518;DHT22;23366;52.498;13.446;2023-05-16T11:35:10;16.50;97.30
37518;DHT22;23366;52.498;13.446;2023-05-16T11:37:37;16.60;97.00
37518;DHT22;23366;52.498;13.446;2023-05-16T11:40:05;16.50;96.80
37518;DHT22;23366;52.498;13.446;2023-05-16T11:42:39;16.50;96.70
37518;DHT22;23366;52.498;13.446;2023-05-16T11:45:19;16.30;96.80
37518;DHT22;23366;52.498;13.446;2023-05-16T11:47:47;16.30;96.90
37518;DHT22;23366;52.498;13.446;2023-05-16T11:50:14;16.30;97.00
37518;DHT22;23366;52.498;13.446;2023-05-16T11:52:43;16.20;97.10
37518;DHT22;23366;52.498;13.446;2023-05-16T11:55:10;16.20;97.00
37518;DHT22;23366;52.498;13.446;2023-05-16T11:57:39;16.30;96.80
37518;DHT22;23366;52.498;13.446;2023-05-16T12:00:17;16.60;96.20
37518;DHT22;23366;52.498;13.446;2023-05-16T12:02:44;17.00;94.70
37518;DHT22;23366;52.498;13.446;2023-05-16T12:05:12;17.40;93.70
37518;DHT22;23366;52.498;13.446;2023-05-16T12:07:38;17.60;92.60
37518;DHT22;23366;52.498;13.446;2023-05-16T12:10:07;17.90;92.30
37518;DHT22;23366;52.498;13.446;2023-05-16T12:12:34;18.00;91.90
37518;DHT22;23366;52.498;13.446;2023-05-16T12:15:01;18.10;91.60
37518;DHT22;23366;52.498;13.446;2023-05-16T12:17:28;18.00;91.40
37518;DHT22;23366;52.498;13.446;2023-05-16T12:19:53;17.80;91.40
37518;DHT22;23366;52.498;13.446;2023-05-16T12:22:19;17.70;91.50
37518;DHT22;23366;52.498;13.446;2023-05-16T12:24:45;17.60;91.90
37518;DHT22;23366;52.498;13.446;2023-05-16T12:27:10;17.50;91.60
37518;DHT22;23366;52.498;13.446;2023-05-16T12:29:45;17.30;91.70
37518;DHT22;23366;52.498;13.446;2023-05-16T12:32:44;17.20;92.00
37518;DHT22;23366;52.498;13.446;2023-05-16T12:35:10;17.00;91.90
37518;DHT22;23366;52.498;13.446;2023-05-16T12:37:37;17.10;92.00
37518;DHT22;23366;52.498;13.446;2023-05-16T12:40:03;17.00;92.10
37518;DHT22;23366;52.498;13.446;2023-05-16T12:42:30;17.10;91.80
37518;DHT22;23366;52.498;13.446;2023-05-16T12:44:55;17.20;91.90
37518;DHT22;23366;52.498;13.446;2023-05-16T12:47:22;17.30;91.40
37518;DHT22;23366;52.498;13.446;2023-05-16T12:49:48;17.50;91.30
37518;DHT22;23366;52.498;13.446;2023-05-16T12:52:19;17.70;91.00
37518;DHT22;23366;52.498;13.446;2023-05-16T12:54:46;17.90;90.70
37518;DHT22;23366;52.498;13.446;2023-05-16T12:57:12;18.10;89.80
37518;DHT22;23366;52.498;13.446;2023-05-16T12:59:38;18.30;88.80
37518;DHT22;23366;52.498;13.446;2023-05-16T13:02:04;18.50;87.60
37518;DHT22;23366;52.498;13.446;2023-05-16T13:04:29;18.70;86.10
37518;DHT22;23366;52.498;13.446;2023-05-16T13:06:55;19.00;84.30
37518;DHT22;23366;52.498;13.446;2023-05-16T13:09:21;19.30;84.20
37518;DHT22;23366;52.498;13.446;2023-05-16T13:11:47;19.40;82.80
37518;DHT22;23366;52.498;13.446;2023-05-16T13:14:13;19.40;82.10
37518;DHT22;23366;52.498;13.446;2023-05-16T13:16:38;19.30;81.40
37518;DHT22;23366;52.498;13.446;2023-05-16T13:19:04;19.10;81.40
37518;DHT22;23366;52.498;13.446;2023-05-16T13:21:30;18.90;81.40
37518;DHT22;23366;52.498;13.446;2023-05-16T13:23:56;18.70;81.50
37518;DHT22;23366;52.498;13.446;2023-05-16T13:26:22;18.50;82.10
37518;DHT22;23366;52.498;13.446;2023-05-16T13:28:48;18.50;82.60
37518;DHT22;23366;52.498;13.446;2023-05-16T13:31:17;18.50;82.80
37518;DHT22;23366;52.498;13.446;2023-05-16T13:33:43;18.40;82.50
37518;DHT22;23366;52.498;13.446;2023-05-16T13:36:08;18.40;81.80
37518;DHT22;23366;52.498;13.446;2023-05-16T13:38:34;18.30;81.70
37518;DHT22;23366;52.498;13.446;2023-05-16T13:41:00;18.20;80.70
37518;DHT22;23366;52.498;13.446;2023-05-16T13:43:25;18.20;80.40
37518;DHT22;23366;52.498;13.446;2023-05-16T13:45:51;18.20;79.40
37518;DHT22;23366;52.498;13.446;2023-05-16T13:48:17;18.20;78.40
37518;DHT22;23366;52.498;13.446;2023-05-16T13:50:42;18.20;78.00
37518;DHT22;23366;52.498;13.446;2023-05-16T13:53:08;18.10;78.20
37518;DHT22;23366;52.498;13.446;2023-05-16T13:55:33;18.00;77.20
37518;DHT22;23366;52.498;13.446;2023-05-16T13:57:59;18.00;77.40
37518;DHT22;23366;52.498;13.446;2023-05-16T14:00:25;18.10;77.70
37518;DHT22;23366;52.498;13.446;2023-05-16T14:02:51;18.20;77.50
37518;DHT22;23366;52.498;13.446;2023-05-16T14:05:17;18.30;77.40
37518;DHT22;23366;52.498;13.446;2023-05-16T14:07:42;18.40;77.20
37518;DHT22;23366;52.498;13.446;2023-05-16T14:10:08;18.60;77.40
37518;DHT22;23366;52.498;13.446;2023-05-16T14:12:34;18.70;75.50
37518;DHT22;23366;52.498;13.446;2023-05-16T14:14:59;18.90;73.60
37518;DHT22;23366;52.498;13.446;2023-05-16T14:17:25;18.90;71.90
37518;DHT22;23366;52.498;13.446;2023-05-16T14:19:51;18.80;71.50
37518;DHT22;23366;52.498;13.446;2023-05-16T14:22:17;18.70;71.60
37518;DHT22;23366;52.498;13.446;2023-05-16T14:24:43;18.50;71.70
37518;DHT22;23366;52.498;13.446;2023-05-16T14:27:08;18.40;71.70
37518;DHT22;23366;52.498;13.446;2023-05-16T14:29:34;18.40;72.40
37518;DHT22;23366;52.498;13.446;2023-05-16T14:31:59;18.40;72.10
37518;DHT22;23366;52.498;13.446;2023-05-16T14:34:25;18.40;72.40
37518;DHT22;23366;52.498;13.446;2023-05-16T14:36:50;18.40;71.60
37518;DHT22;23366;52.498;13.446;2023-05-16T14:39:16;18.40;71.60
37518;DHT22;23366;52.498;13.446;2023-05-16T14:41:42;18.50;71.90
37518;DHT22;23366;52.498;13.446;2023-05-16T14:44:07;18.40;72.00
37518;DHT22;23366;52.498;13.446;2023-05-16T14:46:33;18.30;71.60
37518;DHT22;23366;52.498;13.446;2023-05-16T14:48:58;18.30;71.40
37518;DHT22;23366;52.498;13.446;2023-05-16T14:51:24;18.40;71.00
37518;DHT22;23366;52.498;13.446;2023-05-16T14:53:49;18.40;68.90
37518;DHT22;23366;52.498;13.446;2023-05-16T14:56:15;18.40;68.70
37518;DHT22;23366;52.498;13.446;2023-05-16T14:58:40;18.30;68.60
37518;DHT22;23366;52.498;13.446;2023-05-16T15:01:06;18.30;68.70
37518;DHT22;23366;52.498;13.446;2023-05-16T15:03:31;18.30;68.70
37518;DHT22;23366;52.498;13.446;2023-05-16T15:05:57;18.30;68.50
37518;DHT22;23366;52.498;13.446;2023-05-16T15:08:23;18.30;68.60
37518;DHT22;23366;52.498;13.446;2023-05-16T15:10:49;18.30;68.70
37518;DHT22;23366;52.498;13.446;2023-05-16T15:13:14;18.40;68.50
37518;DHT22;23366;52.498;13.446;2023-05-16T15:15:40;18.40;68.50
37518;DHT22;23366;52.498;13.446;2023-05-16T15:18:06;18.40;68.10
37518;DHT22;23366;52.498;13.446;2023-05-16T15:20:32;18.30;68.20
37518;DHT22;23366;52.498;13.446;2023-05-16T15:22:57;18.30;68.80
37518;DHT22;23366;52.498;13.446;2023-05-16T15:25:23;18.40;68.40